Terminal Aerodrome Forecast
Issued by NWS Brownsville, TX

Home | Current Version | Previous Version | Text Only | Print | Product List | Glossary On
Versions: 1 2 3 4 5 6 7 8 9 10 11 12 13 14 15 16 17
000
FTUS44 KBRO 062336
TAFHRL
TAF
KHRL 062336Z 0700/0724 16019G26KT P6SM SCT035
     FM070300 15012KT P6SM SCT025
     FM071000 15009KT P6SM BKN020
     FM071300 16018G28KT P6SM SCT035=

USA.gov is the U.S. government's official web portal to all federal, state and local government web resources and services.